Saturday, November 18, 2017, 1:30 AM EST
Back to Local

KRUT, Rutland, Rutland-southern Vermont Regional Airport

Location: North Clarendon, VT, United States Lat: 43.533
Local Time: 1:30 AM EST ( 6:30 GMT) Lon: -72.95
Time Zone: US/Eastern Elev: 787 ft

Show me the last for .
Show Decoded

2017-11-17 23:56 METAR KRUT 180456Z AUTO 05004KT 10SM CLR M06/M08 A3004 RMK AO2 SLP192 T10611078
                 400221061 FZRANO $ =
2017-11-17 22:56 METAR KRUT 180356Z AUTO 13003KT 10SM CLR M06/M07 A3004 RMK AO2 SLP193 T10561072
                 FZRANO $ =
2017-11-17 21:56 METAR KRUT 180256Z AUTO 00000KT 10SM CLR M05/M07 A3002 RMK AO2 SLP189 T10501072
                 58013 FZRANO $ =
2017-11-17 19:56 METAR KRUT 180056Z AUTO 03004KT 10SM CLR M03/M08 A3004 RMK AO2 SLP197 T10331083
                 FZRANO $ =
2017-11-17 18:56 METAR KRUT 172356Z AUTO 35005KT 10SM CLR M03/M08 A3006 RMK AO2 SLP201 T10281078
                 10017 21028 53014 FZRANO $ =
2017-11-17 17:56 METAR KRUT 172256Z AUTO 34007KT 10SM CLR M02/M07 A3004 RMK AO2 SLP193 T10221072
                 FZRANO $ =
2017-11-17 16:56 METAR KRUT 172156Z AUTO 33006KT 10SM CLR M02/M07 A3003 RMK AO2 SLP190 T10171072
                 FZRANO $ =
2017-11-17 15:56 METAR KRUT 172056Z AUTO 33006KT 10SM CLR 00/M07 A3002 RMK AO2 SLP188 T00001072
                 53013 FZRANO $ =
2017-11-17 14:56 METAR KRUT 171956Z AUTO 34009KT 10SM CLR 01/M07 A2998 RMK AO2 SLP177 T00111067
                 FZRANO $ =
2017-11-17 13:56 METAR KRUT 171856Z AUTO 33011KT 10SM CLR 01/M06 A2997 RMK AO2 SLP172 T00111056
                 FZRANO $ =
2017-11-17 12:56 METAR KRUT 171756Z AUTO 34009KT 10SM OVC031 01/M05 A2998 RMK AO2 SLP174 60000
                 T00061050 10006 21017 58015 FZRANO $ =
2017-11-17 11:56 METAR KRUT 171656Z AUTO 34007KT 10SM OVC027 M01/M05 A2999 RMK AO2 SLP179
                 T10111050 FZRANO $ =
2017-11-17 10:56 METAR KRUT 171556Z AUTO 33009KT 10SM BKN025 OVC033 M01/M06 A3001 RMK AO2 SLP186
                 T10111056 FZRANO $ =
2017-11-17 09:56 METAR KRUT 171456Z AUTO 32012G16KT 10SM OVC027 M01/M05 A3002 RMK AO2 SNE37
                 SLP188 P0000 60000 T10111050 51024 FZRANO $ =
2017-11-17 08:56 METAR KRUT 171356Z AUTO 32014G19KT 9SM -SN OVC025 M02/M05 A3000 RMK AO2 SNB01
                 SLP182 P0000 T10171050 FZRANO $ =
2017-11-17 07:56 METAR KRUT 171256Z AUTO 34009KT 10SM OVC025 M01/M04 A2998 RMK AO2 UPE01SNB01E28
                 SLP174 P0000 T10111044 FZRANO $ =
2017-11-17 06:56 METAR KRUT 171156Z AUTO 30011G17KT 10SM UP OVC025 M01/M04 A2995 RMK AO2
                 UPB1057E23B53SNE1057B02E16B23E40 SLP162 P0000 60000 70013 T10061044 10017 21006
                 53034 FZRANO $ =
2017-11-17 05:56 METAR KRUT 171056Z AUTO 29010G16KT 9SM -SN OVC027 M01/M04 A2992 RMK AO2
                 UPB08E21B38E44SNB44 SLP151 P0000 T10061044 FZRANO $ =
2017-11-17 04:56 METAR KRUT 170956Z AUTO 29013G19KT 10SM OVC025 00/M05 A2988 RMK AO2
                 RAB19E26SNE19 SLP138 P0000 T00001050 FZRANO $ =
2017-11-17 03:56 METAR KRUT 170856Z AUTO 29009KT 7SM -SN OVC023 01/M03 A2985 RMK AO2
                 RAE23UPB23E26SNB26 SLP131 P0000 60000 T00061033 53022 FZRANO $ =
2017-11-17 02:56 METAR KRUT 170756Z AUTO 28011G20KT 10SM -RA OVC025 01/M03 A2982 RMK AO2
                 UPE22B52E54RAB22 SLP122 P0000 T00111033 FZRANO $ =
2017-11-17 01:56 METAR KRUT 170656Z AUTO 29012G18KT 10SM UP BKN029 OVC036 02/M03 A2980 RMK AO2
                 SLP115 P0000 T00171028 FZRANO $ =
2017-11-17 01:44 METAR KRUT 170644Z AUTO 29008KT 10SM UP OVC029 02/M02 A2980 RMK AO2 P0000 FZRANO
                 $ =

Support USWX by starting your Amazon purchase here.